Time;durP1;ratioP1;P1;durP2;ratioP2;P2;SDS_P1;SDS_P2;PMS_P1;PMS_P2;Temp;Humidity;BMP_temperature;BMP_pressure;BME280_temperature;BME280_humidity;BME280_pressure;Samples;Min_cycle;Max_cycle;Signal;HPM_P1;HPM_P2
2023/08/02 00:00:05;;;;;;;7.37;6.80;;;;;;;26.21;62.53;98685.88;5033882;28;20197;-63
2023/08/02 00:02:31;;;;;;;6.93;6.43;;;;;;;26.29;62.49;98681.59;5033863;28;20205;-63
2023/08/02 00:04:58;;;;;;;7.00;6.57;;;;;;;26.28;62.35;98678.06;5033289;28;20201;-64
2023/08/02 00:07:25;;;;;;;6.57;6.17;;;;;;;26.25;62.57;98675.94;5033579;28;20205;-62
2023/08/02 00:09:53;;;;;;;7.20;6.70;;;;;;;26.20;63.11;98672.56;5032188;28;20197;-64
2023/08/02 00:12:20;;;;;;;6.77;6.37;;;;;;;26.18;63.06;98675.63;5032841;28;20222;-62
2023/08/02 00:14:46;;;;;;;7.23;6.73;;;;;;;26.07;63.65;98681.69;5033189;28;20212;-62
2023/08/02 00:17:13;;;;;;;6.93;6.57;;;;;;;26.06;64.22;98677.34;5033017;28;20201;-64
2023/08/02 00:19:40;;;;;;;7.27;6.80;;;;;;;26.09;64.24;98682.19;5033265;28;20223;-63
2023/08/02 00:22:06;;;;;;;7.27;6.77;;;;;;;26.11;63.90;98680.75;5032935;28;20994;-64
2023/08/02 00:24:33;;;;;;;6.57;6.17;;;;;;;26.12;64.35;98681.53;5033363;28;20229;-64
2023/08/02 00:27:01;;;;;;;7.30;6.70;;;;;;;26.10;64.52;98691.94;5031896;28;20750;-63
2023/08/02 00:29:28;;;;;;;7.37;6.90;;;;;;;26.12;64.39;98686.97;5033336;28;20255;-63
2023/08/02 00:31:54;;;;;;;6.60;6.10;;;;;;;26.06;64.63;98693.69;5033005;28;20221;-67
2023/08/02 00:34:21;;;;;;;6.70;6.40;;;;;;;26.10;64.95;98683.78;5032616;28;20688;-63
2023/08/02 00:36:48;;;;;;;7.03;6.63;;;;;;;26.11;64.94;98679.94;5033108;28;20198;-63
2023/08/02 00:39:14;;;;;;;7.27;6.50;;;;;;;26.12;64.95;98686.97;5032820;28;20251;-63
2023/08/02 00:41:41;;;;;;;6.73;6.30;;;;;;;26.13;64.96;98694.03;5033108;28;20255;-62
2023/08/02 00:44:09;;;;;;;6.23;5.90;;;;;;;26.09;65.07;98687.63;5031809;28;20220;-64
2023/08/02 00:46:36;;;;;;;7.50;6.20;;;;;;;26.12;64.94;98693.22;5032619;28;20194;-64
2023/08/02 00:49:03;;;;;;;5.93;5.67;;;;;;;26.14;64.88;98695.63;5032422;28;20263;-63
2023/08/02 00:51:34;;;;;;;7.20;6.73;;;;;;;26.17;65.12;98700.47;5031833;28;20692;-62
2023/08/02 00:54:02;;;;;;;7.40;6.90;;;;;;;26.11;65.12;98690.81;5032896;28;20256;-63
2023/08/02 00:56:29;;;;;;;6.47;6.03;;;;;;;26.04;65.56;98691.28;5032774;28;20195;-63
2023/08/02 00:58:55;;;;;;;7.80;6.40;;;;;;;26.04;65.67;98691.28;5032356;28;20251;-62
2023/08/02 01:01:24;;;;;;;6.40;6.00;;;;;;;26.10;65.26;98694.66;5031690;28;20200;-62
2023/08/02 01:03:51;;;;;;;6.60;6.17;;;;;;;26.12;65.42;98703.31;5032301;28;20193;-62
2023/08/02 01:06:24;;;;;;;6.80;6.27;;;;;;;26.07;65.64;98714.34;5032029;28;20251;-62
2023/08/02 01:08:59;;;;;;;6.93;6.33;;;;;;;26.05;65.71;98713.88;5032477;28;20223;-62
2023/08/02 01:11:30;;;;;;;5.70;5.30;;;;;;;26.05;66.24;98711.16;5032158;28;20300;-62
2023/08/02 01:13:58;;;;;;;7.60;5.90;;;;;;;26.11;65.92;98712.59;5032277;28;20558;-64
2023/08/02 01:16:27;;;;;;;6.80;6.50;;;;;;;26.15;65.98;98714.38;5031916;28;20189;-62
2023/08/02 01:18:53;;;;;;;7.10;6.60;;;;;;;26.09;66.29;98715.63;5031515;28;20255;-62
2023/08/02 01:21:20;;;;;;;6.90;6.50;;;;;;;26.05;65.95;98709.22;5032348;28;20202;-63
2023/08/02 01:23:47;;;;;;;6.57;6.03;;;;;;;26.10;66.00;98716.44;5032093;28;20691;-62
2023/08/02 01:26:15;;;;;;;6.93;6.53;;;;;;;26.09;66.16;98717.56;5032032;28;20193;-65
2023/08/02 01:28:46;;;;;;;7.73;7.07;;;;;;;26.07;65.88;98714.34;5031683;28;20266;-62
2023/08/02 01:31:16;;;;;;;7.00;6.50;;;;;;;26.07;66.12;98717.06;5032256;28;20216;-63
2023/08/02 01:33:48;;;;;;;6.97;6.50;;;;;;;26.06;66.12;98721.72;5031890;28;20181;-62
2023/08/02 01:36:14;;;;;;;7.17;6.77;;;;;;;26.06;66.47;98723.63;5031117;28;20664;-63
2023/08/02 01:38:42;;;;;;;7.67;6.87;;;;;;;26.08;66.02;98726.81;5031756;28;20197;-64
2023/08/02 01:41:09;;;;;;;7.37;6.90;;;;;;;26.10;66.09;98721.88;5031769;28;20622;-63
2023/08/02 01:43:36;;;;;;;7.57;6.67;;;;;;;26.12;66.38;98727.81;5032259;28;20193;-63
2023/08/02 01:46:03;;;;;;;11.60;7.43;;;;;;;26.14;66.24;98722.88;5032124;28;20197;-63
2023/08/02 01:48:29;;;;;;;6.90;6.40;;;;;;;26.15;65.88;98729.91;5031693;28;20714;-62
2023/08/02 01:50:56;;;;;;;7.93;7.17;;;;;;;26.11;66.30;98723.47;5031709;28;20727;-62
2023/08/02 01:53:23;;;;;;;6.27;5.87;;;;;;;26.10;66.18;98730.06;5030963;28;20283;-61
2023/08/02 01:55:51;;;;;;;6.90;6.50;;;;;;;26.18;66.11;98727.38;5031700;28;20205;-61
2023/08/02 01:58:18;;;;;;;6.90;6.40;;;;;;;26.27;65.70;98725.47;5031647;28;20193;-62
2023/08/02 02:00:44;;;;;;;8.13;7.57;;;;;;;26.34;65.64;98728.50;5031299;28;20243;-63
2023/08/02 02:03:11;;;;;;;8.60;7.80;;;;;;;26.35;65.24;98729.31;5031299;28;20665;-61
2023/08/02 02:05:38;;;;;;;9.33;8.60;;;;;;;26.26;65.59;98726.59;5031436;28;20685;-62
2023/08/02 02:08:04;;;;;;;9.93;9.17;;;;;;;26.15;65.33;98724.47;5031641;28;20270;-62
2023/08/02 02:10:31;;;;;;;11.57;10.47;;;;;;;26.10;65.25;98732.78;5031467;28;20193;-62
2023/08/02 02:13:00;;;;;;;13.63;12.40;;;;;;;26.07;64.87;98730.69;5030539;28;20221;-63
2023/08/02 02:15:26;;;;;;;13.23;11.97;;;;;;;26.00;65.13;98733.06;5031684;28;20243;-59
2023/08/02 02:17:53;;;;;;;10.53;9.73;;;;;;;25.95;65.17;98730.47;5031541;28;20197;-61
2023/08/02 02:20:20;;;;;;;12.50;11.33;;;;;;;26.05;64.43;98741.09;5031357;28;20201;-61
2023/08/02 02:22:46;;;;;;;13.00;11.70;;;;;;;26.04;64.70;98739.50;5031371;28;20197;-61
2023/08/02 02:25:13;;;;;;;14.27;13.10;;;;;;;26.05;64.43;98741.88;5031374;28;20291;-62
2023/08/02 02:27:40;;;;;;;14.90;13.37;;;;;;;25.98;64.23;98746.19;5032733;28;20201;-62
2023/08/02 02:30:09;;;;;;;13.27;11.90;;;;;;;25.93;64.35;98749.00;5033932;28;20735;-62
2023/08/02 02:32:35;;;;;;;14.47;13.03;;;;;;;25.91;64.22;98745.78;5034849;28;20692;-61
2023/08/02 02:35:02;;;;;;;13.33;12.27;;;;;;;25.83;64.76;98746.53;5034878;28;20583;-62
2023/08/02 02:37:29;;;;;;;14.73;12.77;;;;;;;25.82;64.86;98755.84;5034796;28;20194;-61
2023/08/02 02:39:56;;;;;;;15.57;12.87;;;;;;;25.87;64.94;98759.22;5035035;28;20197;-61
2023/08/02 02:42:23;;;;;;;13.93;12.37;;;;;;;25.84;65.21;98753.63;5035344;28;20198;-60
2023/08/02 02:44:49;;;;;;;14.07;12.80;;;;;;;25.88;64.78;98757.31;5035141;28;20201;-60
2023/08/02 02:47:17;;;;;;;20.20;12.93;;;;;;;25.87;65.11;98763.84;5034666;28;20189;-61
2023/08/02 02:49:44;;;;;;;18.00;13.83;;;;;;;25.88;64.97;98773.66;5035098;28;20243;-61
2023/08/02 02:52:11;;;;;;;15.90;13.17;;;;;;;25.86;65.58;98764.97;5034820;28;20336;-61
2023/08/02 02:54:38;;;;;;;20.23;12.33;;;;;;;25.87;65.63;98767.41;5034116;28;20189;-61
2023/08/02 02:57:05;;;;;;;15.47;12.63;;;;;;;25.73;64.91;98739.47;5034544;28;20613;-61
2023/08/02 02:59:32;;;;;;;14.20;12.63;;;;;;;25.91;65.02;98762.13;5034939;28;20193;-61
2023/08/02 03:01:59;;;;;;;13.67;12.40;;;;;;;25.96;65.12;98767.47;5033839;28;20288;-62
2023/08/02 03:04:27;;;;;;;14.00;12.70;;;;;;;25.92;65.27;98763.75;5034800;28;20632;-62
2023/08/02 03:06:54;;;;;;;13.43;12.20;;;;;;;25.85;65.45;98766.09;5034884;28;20251;-62
2023/08/02 03:09:21;;;;;;;12.50;11.30;;;;;;;25.86;65.32;98773.16;5034740;28;20193;-62
2023/08/02 03:11:48;;;;;;;12.60;11.67;;;;;;;25.94;64.79;98775.13;5034923;28;20283;-62
2023/08/02 03:14:14;;;;;;;14.53;12.90;;;;;;;25.82;64.79;98769.44;5034402;28;20193;-63
2023/08/02 03:16:43;;;;;;;15.63;14.00;;;;;;;25.69;65.08;98771.16;5034344;28;20190;-62
2023/08/02 03:19:09;;;;;;;15.20;13.87;;;;;;;25.63;64.96;98766.94;5034027;28;20194;-64
2023/08/02 03:21:38;;;;;;;15.43;13.83;;;;;;;25.57;65.23;98772.81;5033751;28;20197;-62
2023/08/02 03:24:04;;;;;;;15.53;13.93;;;;;;;25.52;65.82;98770.22;5034103;28;20221;-62
2023/08/02 03:26:31;;;;;;;13.90;12.87;;;;;;;25.43;66.02;98763.94;5034327;28;20284;-62
2023/08/02 03:28:58;;;;;;;16.00;14.63;;;;;;;25.45;66.68;98767.94;5034175;28;20193;-62
2023/08/02 03:31:25;;;;;;;15.63;14.10;;;;;;;25.39;66.43;98771.91;5034111;28;20215;-62
2023/08/02 03:33:51;;;;;;;14.57;13.47;;;;;;;25.45;65.95;98772.56;5034337;28;20194;-62
2023/08/02 03:36:18;;;;;;;16.27;14.63;;;;;;;25.50;65.77;98772.44;5034265;28;20262;-63
2023/08/02 03:38:46;;;;;;;16.47;15.03;;;;;;;25.38;66.33;98775.72;5031922;28;20254;-61
2023/08/02 03:41:13;;;;;;;15.87;14.67;;;;;;;25.30;66.84;98776.47;5014328;28;20197;-61
2023/08/02 03:43:39;;;;;;;13.57;12.47;;;;;;;25.31;66.94;98769.13;5029221;28;20197;-62
2023/08/02 03:46:06;;;;;;;14.80;13.30;;;;;;;25.49;66.00;98777.09;5033743;28;20255;-63
2023/08/02 03:48:33;;;;;;;15.87;14.33;;;;;;;25.59;65.51;98778.75;5034012;28;20201;-60
2023/08/02 03:51:00;;;;;;;14.00;12.73;;;;;;;25.61;65.67;98779.25;5033598;28;20189;-61
2023/08/02 03:53:27;;;;;;;13.90;12.50;;;;;;;25.83;64.94;98782.75;5033810;28;20221;-61
2023/08/02 03:55:56;;;;;;;15.97;13.97;;;;;;;25.99;64.00;98792.16;5033661;28;20197;-61
2023/08/02 03:58:22;;;;;;;15.23;13.93;;;;;;;25.96;63.25;98792.75;5032554;28;20201;-61
2023/08/02 04:00:49;;;;;;;14.53;13.60;;;;;;;25.85;62.48;98791.38;5033466;28;20193;-61
2023/08/02 04:03:16;;;;;;;15.23;13.90;;;;;;;25.66;63.02;98790.81;5033664;28;20259;-62
2023/08/02 04:05:42;;;;;;;15.00;13.67;;;;;;;25.60;63.55;98793.97;5033716;28;20247;-62
2023/08/02 04:08:09;;;;;;;16.83;13.20;;;;;;;25.75;62.92;98790.84;5033896;28;20201;-61
2023/08/02 04:10:37;;;;;;;29.40;15.50;;;;;;;25.92;62.75;98791.75;5032302;28;20212;-62
2023/08/02 04:13:05;;;;;;;19.87;13.40;;;;;;;26.10;62.97;98790.75;5033307;28;20267;-63
2023/08/02 04:15:32;;;;;;;20.30;14.27;;;;;;;26.23;62.36;98797.22;5032904;28;20243;-62
2023/08/02 04:17:58;;;;;;;15.43;12.07;;;;;;;26.69;61.70;98795.63;5033403;28;20214;-62
2023/08/02 04:20:25;;;;;;;18.80;13.50;;;;;;;27.27;59.45;98795.25;5032790;28;20201;-63
2023/08/02 04:22:52;;;;;;;34.20;14.43;;;;;;;27.87;57.11;98806.88;5033478;28;20198;-62
2023/08/02 04:25:19;;;;;;;28.20;13.60;;;;;;;28.42;54.98;98811.22;5031264;28;20222;-63
2023/08/02 04:27:46;;;;;;;27.27;13.60;;;;;;;28.87;53.29;98808.72;5032666;28;20629;-63
2023/08/02 04:30:14;;;;;;;22.23;13.10;;;;;;;29.01;53.00;98806.56;5033208;28;20247;-63
2023/08/02 04:32:41;;;;;;;13.60;12.23;;;;;;;29.52;51.72;98814.34;5032397;28;20217;-64
2023/08/02 04:35:08;;;;;;;14.67;13.20;;;;;;;30.17;49.06;98819.06;5032309;28;20255;-63
2023/08/02 04:37:35;;;;;;;22.50;13.20;;;;;;;30.66;46.68;98812.47;5032539;28;20630;-63
2023/08/02 04:40:02;;;;;;;13.13;11.07;;;;;;;31.12;45.54;98823.75;5032566;28;20193;-63
2023/08/02 04:42:28;;;;;;;19.83;11.97;;;;;;;31.67;43.51;98815.56;5032302;28;20208;-63
2023/08/02 04:44:55;;;;;;;11.93;10.40;;;;;;;31.95;43.39;98818.31;5032255;28;20680;-63
2023/08/02 04:47:23;;;;;;;17.40;11.30;;;;;;;32.10;42.57;98812.81;5032674;28;20669;-63
2023/08/02 04:49:50;;;;;;;17.43;11.17;;;;;;;32.29;41.81;98804.72;5032929;28;20193;-64
2023/08/02 04:52:16;;;;;;;17.07;11.03;;;;;;;32.46;41.06;98815.34;5031908;28;20217;-63
2023/08/02 04:54:43;;;;;;;12.33;11.00;;;;;;;32.79;40.15;98813.00;5032331;28;20268;-62
2023/08/02 04:57:10;;;;;;;11.70;10.50;;;;;;;33.01;39.62;98825.34;5032472;28;20239;-62
2023/08/02 04:59:36;;;;;;;15.37;10.37;;;;;;;33.12;39.36;98816.16;5032650;28;20255;-67
2023/08/02 05:02:03;;;;;;;10.50;9.53;;;;;;;32.89;39.79;98808.94;5031676;28;20251;-66
2023/08/02 05:04:32;;;;;;;9.73;8.68;;;;;;;33.11;39.51;98817.31;5032636;28;20192;-67
2023/08/02 05:06:59;;;;;;;13.47;8.83;;;;;;;33.60;38.29;98819.56;5032317;28;20231;-67
2023/08/02 05:09:26;;;;;;;9.00;7.63;;;;;;;33.82;37.78;98827.91;5031602;28;20255;-67
2023/08/02 05:11:52;;;;;;;11.20;8.65;;;;;;;34.17;37.11;98823.03;5031840;28;20263;-66
2023/08/02 05:14:19;;;;;;;9.48;8.70;;;;;;;34.48;36.26;98828.34;5032142;28;20280;-65
2023/08/02 05:16:46;;;;;;;10.18;9.18;;;;;;;34.63;35.70;98826.59;5031402;28;20197;-65
2023/08/02 05:19:13;;;;;;;8.48;7.97;;;;;;;34.51;36.15;98819.31;5031801;28;20197;-66
2023/08/02 05:21:41;;;;;;;8.65;8.10;;;;;;;34.56;35.96;98826.47;5032155;28;20668;-66
2023/08/02 05:24:08;;;;;;;9.32;8.30;;;;;;;34.70;36.02;98823.97;5031780;28;20774;-67
2023/08/02 05:26:34;;;;;;;9.90;7.85;;;;;;;35.13;35.49;98831.72;5029090;28;20656;-66
2023/08/02 05:29:01;;;;;;;9.57;7.75;;;;;;;34.80;35.41;98829.66;5031726;28;20361;-66
2023/08/02 05:31:28;;;;;;;8.55;7.95;;;;;;;34.55;36.15;98833.16;5031522;28;20197;-67
2023/08/02 05:33:54;;;;;;;8.27;7.82;;;;;;;34.72;36.01;98841.72;5030872;28;20223;-67
2023/08/02 05:36:21;;;;;;;7.60;7.00;;;;;;;34.99;35.24;98848.09;5031365;28;20279;-64
2023/08/02 05:38:49;;;;;;;7.25;6.75;;;;;;;35.15;34.80;98845.97;5031761;28;20197;-67
2023/08/02 05:41:16;;;;;;;7.85;7.00;;;;;;;35.26;35.03;98844.13;5031118;28;20680;-66
2023/08/02 05:43:44;;;;;;;7.75;7.35;;;;;;;35.22;34.34;98840.50;5031797;28;20197;-64
2023/08/02 05:46:11;;;;;;;7.65;7.05;;;;;;;35.14;34.97;98845.16;5030226;28;20216;-66
2023/08/02 05:48:38;;;;;;;8.48;7.53;;;;;;;35.22;34.17;98846.03;5031037;28;20193;-65
2023/08/02 05:51:05;;;;;;;9.00;8.10;;;;;;;35.50;34.24;98851.97;5031220;28;20208;-65
2023/08/02 05:53:31;;;;;;;8.60;7.93;;;;;;;36.07;33.36;98843.19;5031247;28;20703;-65
2023/08/02 05:55:59;;;;;;;7.68;7.05;;;;;;;36.63;32.02;98843.75;5031535;28;20193;-65
2023/08/02 05:58:26;;;;;;;6.65;6.32;;;;;;;36.81;32.02;98839.97;5031656;28;20189;-68
2023/08/02 06:00:53;;;;;;;8.43;7.57;;;;;;;36.39;31.57;98838.78;5029877;28;20189;-68
2023/08/02 06:03:20;;;;;;;8.73;7.85;;;;;;;36.29;32.04;98839.50;5034015;28;20197;-61
2023/08/02 06:05:48;;;;;;;8.70;8.10;;;;;;;35.75;32.73;98848.38;5035362;28;20193;-64
2023/08/02 06:08:14;;;;;;;9.15;8.30;;;;;;;35.01;34.25;98834.69;5034437;28;20284;-63
2023/08/02 06:10:41;;;;;;;8.77;8.23;;;;;;;35.19;34.01;98835.75;5034543;28;20255;-62
2023/08/02 06:13:09;;;;;;;9.02;8.50;;;;;;;34.95;34.49;98830.69;5034709;28;20818;-62
2023/08/02 06:15:36;;;;;;;9.32;8.18;;;;;;;34.84;34.79;98835.22;5035399;28;20197;-62
2023/08/02 06:18:03;;;;;;;10.25;9.23;;;;;;;34.93;34.90;98844.03;5034450;28;20185;-61
2023/08/02 06:20:29;;;;;;;12.35;8.88;;;;;;;35.07;34.32;98831.22;5034847;28;20197;-61
2023/08/02 06:22:56;;;;;;;10.45;9.55;;;;;;;35.25;33.74;98834.25;5034859;28;20247;-62
2023/08/02 06:25:23;;;;;;;9.98;9.38;;;;;;;35.41;33.82;98826.59;5034827;28;20754;-62
2023/08/02 06:27:50;;;;;;;8.73;8.13;;;;;;;35.47;33.52;98830.59;5034756;28;20193;-62
2023/08/02 06:30:18;;;;;;;8.93;8.18;;;;;;;35.42;33.57;98829.00;5034802;28;20189;-61
2023/08/02 06:32:44;;;;;;;10.75;9.52;;;;;;;35.32;34.18;98828.84;5034941;28;20283;-62
2023/08/02 06:35:12;;;;;;;11.10;9.90;;;;;;;35.23;34.06;98831.84;5034433;28;20727;-62
2023/08/02 06:37:39;;;;;;;15.77;9.48;;;;;;;34.67;35.50;98825.50;5033206;28;20282;-63
2023/08/02 06:40:06;;;;;;;12.00;11.00;;;;;;;33.70;37.01;98824.47;5034611;28;20613;-63
2023/08/02 06:42:33;;;;;;;10.13;9.43;;;;;;;32.73;39.08;98814.44;5033739;28;20591;-64
2023/08/02 06:45:00;;;;;;;10.43;9.18;;;;;;;32.43;40.00;98820.78;5034129;28;20190;-63
2023/08/02 06:47:28;;;;;;;10.30;9.43;;;;;;;32.29;40.84;98821.22;5033529;28;20688;-63
2023/08/02 06:49:55;;;;;;;10.03;9.20;;;;;;;32.46;40.25;98820.84;5033687;28;20683;-62
2023/08/02 06:52:21;;;;;;;11.20;10.20;;;;;;;32.09;41.70;98816.72;5034248;28;20197;-61
2023/08/02 06:54:52;;;;;;;11.60;9.40;;;;;;;31.99;42.02;98816.47;5033312;28;20275;-63
2023/08/02 06:57:22;;;;;;;11.77;8.87;;;;;;;32.03;41.87;98823.66;5034412;28;20273;-62
2023/08/02 06:59:49;;;;;;;10.67;9.73;;;;;;;32.09;41.74;98824.97;5033827;28;20605;-64
2023/08/02 07:02:16;;;;;;;9.50;9.00;;;;;;;32.20;41.47;98823.31;5033349;28;20730;-63
2023/08/02 07:04:44;;;;;;;11.47;10.37;;;;;;;32.32;41.69;98834.25;5033475;28;20205;-64
2023/08/02 07:07:10;;;;;;;11.70;10.50;;;;;;;32.31;41.49;98815.38;5033894;28;20743;-63
2023/08/02 07:09:37;;;;;;;10.33;9.63;;;;;;;32.42;42.11;98836.47;5033262;28;20201;-65
2023/08/02 07:12:04;;;;;;;9.87;9.00;;;;;;;32.77;40.82;98826.34;5033817;28;20197;-63
2023/08/02 07:14:31;;;;;;;11.40;10.13;;;;;;;33.08;40.02;98820.78;5032667;28;20229;-62
2023/08/02 07:16:57;;;;;;;9.75;9.05;;;;;;;33.26;39.67;98832.19;5033199;28;20255;-63
2023/08/02 07:19:24;;;;;;;12.32;11.38;;;;;;;33.30;39.93;98825.59;5033683;28;20652;-63
2023/08/02 07:21:52;;;;;;;12.90;10.30;;;;;;;33.38;39.98;98825.75;5033390;28;20204;-62
2023/08/02 07:24:19;;;;;;;10.30;9.00;;;;;;;33.45;39.55;98823.16;5033934;28;20635;-62
2023/08/02 07:26:45;;;;;;;10.13;8.73;;;;;;;33.32;39.81;98829.97;5031887;28;20205;-62
2023/08/02 07:29:12;;;;;;;8.82;8.13;;;;;;;33.64;39.14;98825.94;5034159;28;20205;-64
2023/08/02 07:31:39;;;;;;;8.48;7.78;;;;;;;33.79;38.86;98825.84;5033031;28;20186;-63
2023/08/02 07:34:05;;;;;;;15.70;9.57;;;;;;;33.80;38.51;98823.88;5033214;28;20224;-62
2023/08/02 07:36:32;;;;;;;14.20;9.18;;;;;;;33.87;38.92;98824.03;5033791;28;20209;-61
2023/08/02 07:39:00;;;;;;;12.73;9.85;;;;;;;33.90;39.00;98815.03;5033411;28;20193;-63
2023/08/02 07:41:28;;;;;;;12.02;11.15;;;;;;;34.14;38.27;98822.97;5033726;28;20735;-63
2023/08/02 07:43:55;;;;;;;10.52;9.30;;;;;;;34.32;37.75;98826.84;5033775;28;20661;-62
2023/08/02 07:46:22;;;;;;;8.98;8.45;;;;;;;34.35;37.82;98815.91;5033130;28;20197;-63
2023/08/02 07:48:51;;;;;;;13.48;8.73;;;;;;;34.73;37.24;98818.47;5033572;28;20735;-63
2023/08/02 07:51:17;;;;;;;9.80;8.98;;;;;;;34.68;36.83;98815.22;5033529;28;20225;-63
2023/08/02 07:53:44;;;;;;;9.05;8.13;;;;;;;34.55;36.68;98822.13;5033780;28;20225;-63
2023/08/02 07:56:12;;;;;;;9.82;8.30;;;;;;;34.51;37.31;98816.56;5033490;28;20555;-61
2023/08/02 07:58:39;;;;;;;9.80;8.98;;;;;;;34.62;37.17;98812.00;5033583;28;20201;-61
2023/08/02 08:01:07;;;;;;;8.55;7.85;;;;;;;34.89;36.94;98815.59;5032892;28;20267;-62
2023/08/02 08:03:34;;;;;;;8.43;7.97;;;;;;;35.13;36.00;98815.16;5032310;28;20221;-61
2023/08/02 08:06:01;;;;;;;10.80;10.10;;;;;;;34.69;36.86;98822.34;5033534;28;20198;-61
2023/08/02 08:08:27;;;;;;;11.32;9.60;;;;;;;34.78;37.31;98815.41;5033322;28;20194;-61
2023/08/02 08:10:54;;;;;;;9.35;8.57;;;;;;;35.05;36.39;98810.69;5033132;28;20193;-62
2023/08/02 08:13:22;;;;;;;10.30;7.95;;;;;;;35.26;36.55;98810.97;5033210;28;20283;-62
2023/08/02 08:15:49;;;;;;;8.52;7.82;;;;;;;35.46;35.95;98812.44;5032827;28;20240;-60
2023/08/02 08:18:16;;;;;;;8.75;8.05;;;;;;;35.00;37.16;98799.97;5032333;28;20621;-61
2023/08/02 08:20:42;;;;;;;9.30;8.50;;;;;;;35.44;36.13;98793.47;5033162;28;20193;-63
2023/08/02 08:23:09;;;;;;;10.05;8.27;;;;;;;35.78;35.16;98799.81;5033120;28;20251;-61
2023/08/02 08:25:36;;;;;;;9.13;8.35;;;;;;;35.92;35.62;98797.19;5032454;28;20221;-61
2023/08/02 08:28:02;;;;;;;8.60;7.85;;;;;;;35.90;35.44;98794.84;5032242;28;20205;-61
2023/08/02 08:30:30;;;;;;;12.15;8.25;;;;;;;36.11;35.15;98794.22;5032691;28;20247;-61
2023/08/02 08:32:57;;;;;;;9.32;8.40;;;;;;;36.23;33.94;98796.75;5032753;28;20661;-61
2023/08/02 08:35:24;;;;;;;8.55;7.85;;;;;;;36.27;34.39;98787.31;5032606;28;20232;-62
2023/08/02 08:37:52;;;;;;;8.80;8.10;;;;;;;36.43;34.04;98795.34;5032669;28;20193;-61
2023/08/02 08:40:20;;;;;;;8.95;8.43;;;;;;;36.22;34.35;98795.16;5032904;28;20190;-62
2023/08/02 08:42:50;;;;;;;10.20;9.40;;;;;;;36.17;34.22;98787.19;5033091;28;20585;-61
2023/08/02 08:45:19;;;;;;;15.38;8.38;;;;;;;36.43;34.14;98792.56;5031969;28;20231;-67
2023/08/02 08:47:48;;;;;;;9.13;8.07;;;;;;;36.34;33.97;98783.81;5031659;28;20196;-62
2023/08/02 08:50:18;;;;;;;7.70;7.20;;;;;;;36.32;33.56;98783.38;5032719;28;20193;-61
2023/08/02 08:52:46;;;;;;;8.25;7.50;;;;;;;36.50;33.31;98778.81;5032668;28;20201;-61
2023/08/02 08:55:16;;;;;;;8.90;8.02;;;;;;;36.18;33.98;98777.72;5032624;28;20229;-61
2023/08/02 08:57:45;;;;;;;9.45;8.60;;;;;;;36.04;33.77;98774.81;5031848;28;20626;-65
2023/08/02 09:00:13;;;;;;;8.80;8.10;;;;;;;36.19;34.03;98774.56;5031665;28;20197;-61
2023/08/02 09:02:42;;;;;;;9.38;8.73;;;;;;;36.09;34.10;98771.72;5031933;28;20198;-61
2023/08/02 09:05:11;;;;;;;8.75;8.07;;;;;;;35.31;35.40;98774.78;5032294;28;20201;-62
2023/08/02 09:07:38;;;;;;;9.55;8.65;;;;;;;35.42;35.38;98767.41;5031587;28;20259;-60
2023/08/02 09:10:05;;;;;;;9.48;8.93;;;;;;;35.71;34.80;98770.13;5031483;28;20202;-65
2023/08/02 09:12:43;;;;;;;8.95;8.25;;;;;;;35.51;35.50;98765.94;5031641;28;20668;-61
2023/08/02 09:15:10;;;;;;;8.45;7.95;;;;;;;35.52;34.59;98769.50;5031962;28;20209;-61
2023/08/02 09:17:47;;;;;;;8.70;7.82;;;;;;;35.85;34.51;98770.28;5031813;28;20193;-61
2023/08/02 09:20:16;;;;;;;10.82;8.38;;;;;;;36.04;34.34;98772.03;5032263;28;20224;-61
2023/08/02 09:22:43;;;;;;;9.52;8.40;;;;;;;36.26;33.39;98768.31;5032490;28;20263;-61
2023/08/02 09:25:21;;;;;;;8.50;8.10;;;;;;;36.43;33.65;98773.19;5031250;28;20298;-62
2023/08/02 09:27:48;;;;;;;9.98;9.00;;;;;;;36.73;32.91;98768.28;5031389;28;20189;-62
2023/08/02 09:30:23;;;;;;;8.93;8.10;;;;;;;36.80;33.46;98766.38;5032198;28;20634;-61
2023/08/02 09:33:00;;;;;;;7.97;7.53;;;;;;;36.95;32.74;98764.50;5032145;28;20185;-61
2023/08/02 09:35:29;;;;;;;8.88;8.18;;;;;;;37.24;32.75;98769.78;5030353;28;20494;-61
2023/08/02 09:37:55;;;;;;;8.77;8.05;;;;;;;37.27;32.41;98759.91;5030911;28;20263;-62
2023/08/02 09:40:35;;;;;;;9.00;8.23;;;;;;;37.10;32.59;98757.81;5031492;28;20253;-62
2023/08/02 09:43:03;;;;;;;8.70;8.20;;;;;;;37.15;32.78;98755.50;5030354;28;20188;-61
2023/08/02 09:45:34;;;;;;;8.18;7.78;;;;;;;37.28;32.34;98753.97;5031252;28;20317;-61
2023/08/02 09:48:00;;;;;;;11.18;7.95;;;;;;;37.42;32.20;98763.53;5031631;28;20688;-61
2023/08/02 09:50:30;;;;;;;8.37;7.67;;;;;;;37.48;32.34;98751.69;5030990;28;20445;-60
2023/08/02 09:52:57;;;;;;;8.88;8.20;;;;;;;37.53;31.17;98762.38;5031660;28;20228;-60
2023/08/02 09:55:24;;;;;;;7.50;7.10;;;;;;;37.58;31.52;98755.66;5030934;28;20652;-60
2023/08/02 09:57:50;;;;;;;8.07;7.68;;;;;;;37.49;31.62;98747.72;5031502;28;20200;-60
2023/08/02 10:00:18;;;;;;;8.60;8.02;;;;;;;37.55;31.33;98750.91;5030074;28;20264;-60
2023/08/02 10:02:47;;;;;;;9.20;7.75;;;;;;;37.71;31.51;98743.84;5027404;28;20201;-60
2023/08/02 10:05:14;;;;;;;9.23;8.35;;;;;;;37.90;31.63;98737.13;5030507;28;20240;-61
2023/08/02 10:07:46;;;;;;;14.35;8.57;;;;;;;37.94;31.54;98729.59;5031072;28;20197;-60
2023/08/02 10:10:17;;;;;;;8.93;8.43;;;;;;;37.51;31.59;98728.72;5031294;28;20285;-60
2023/08/02 10:12:50;;;;;;;8.80;8.18;;;;;;;37.19;32.29;98720.28;5028974;28;20441;-60
2023/08/02 10:15:18;;;;;;;8.13;7.72;;;;;;;37.30;32.00;98716.78;5030127;28;20300;-60
2023/08/02 10:17:47;;;;;;;8.48;7.82;;;;;;;37.38;31.15;98718.38;5027896;28;20255;-64
2023/08/02 10:20:15;;;;;;;9.05;8.55;;;;;;;37.48;31.67;98717.63;5029727;28;20213;-64
2023/08/02 10:22:43;;;;;;;8.35;7.68;;;;;;;37.64;30.95;98721.63;5030264;28;20283;-61
2023/08/02 10:25:13;;;;;;;11.57;7.95;;;;;;;37.81;31.16;98714.53;5025263;28;20252;-61
2023/08/02 10:27:41;;;;;;;8.38;7.88;;;;;;;37.67;31.04;98706.22;5028151;28;20193;-62
2023/08/02 10:30:11;;;;;;;7.90;7.40;;;;;;;37.64;30.72;98713.31;5026883;28;20247;-61
2023/08/02 10:32:38;;;;;;;7.53;7.03;;;;;;;37.65;30.04;98701.06;5027844;28;20229;-61
2023/08/02 10:35:05;;;;;;;8.18;7.60;;;;;;;37.59;30.76;98691.53;5028431;28;20241;-64
2023/08/02 10:37:54;;;;;;;7.90;7.32;;;;;;;37.13;30.83;98685.03;5029186;28;20190;-63
2023/08/02 10:40:22;;;;;;;8.60;7.93;;;;;;;37.29;30.91;98677.19;5028399;28;20221;-59
2023/08/02 10:43:06;;;;;;;8.70;8.02;;;;;;;37.42;31.31;98674.81;5030723;28;20629;-61
2023/08/02 10:45:34;;;;;;;8.30;7.80;;;;;;;37.60;30.76;98676.47;5028431;28;20669;-61
2023/08/02 10:48:23;;;;;;;9.15;8.55;;;;;;;37.46;30.91;98676.44;5030519;28;20235;-61
2023/08/02 10:50:50;;;;;;;8.05;7.25;;;;;;;36.89;31.13;98663.56;5032314;28;20196;-62
2023/08/02 10:53:19;;;;;;;8.52;8.13;;;;;;;36.81;31.80;98667.47;5033135;28;20665;-62
2023/08/02 10:56:10;;;;;;;7.50;7.15;;;;;;;37.07;31.44;98669.97;5032875;28;20221;-65
2023/08/02 10:58:50;;;;;;;8.20;7.70;;;;;;;37.27;30.60;98673.22;5034229;28;20256;-61
2023/08/02 11:01:17;;;;;;;9.00;8.25;;;;;;;36.75;31.83;98664.28;5034112;28;20244;-62
2023/08/02 11:03:45;;;;;;;10.02;9.05;;;;;;;35.64;33.09;98655.94;5033205;28;20248;-60
2023/08/02 11:06:25;;;;;;;9.73;9.02;;;;;;;35.66;33.00;98657.13;5033281;28;20193;-61
2023/08/02 11:08:53;;;;;;;9.15;8.52;;;;;;;36.02;33.75;98659.06;5033957;28;20189;-62
2023/08/02 11:11:34;;;;;;;8.95;8.32;;;;;;;36.05;33.15;98627.06;5032805;28;20268;-62
2023/08/02 11:14:01;;;;;;;8.63;7.97;;;;;;;36.20;32.82;98637.84;5033560;28;20343;-63
2023/08/02 11:16:28;;;;;;;7.72;7.05;;;;;;;36.54;31.82;98644.00;5033905;28;20641;-61
2023/08/02 11:18:55;;;;;;;9.32;8.43;;;;;;;36.54;32.13;98641.22;5031982;28;20240;-61
2023/08/02 11:21:22;;;;;;;8.63;8.00;;;;;;;36.71;31.68;98624.72;5032984;28;20193;-60
2023/08/02 11:23:50;;;;;;;8.90;8.05;;;;;;;37.01;32.42;98638.28;5033261;28;20687;-61
2023/08/02 11:26:19;;;;;;;9.25;8.55;;;;;;;36.95;31.37;98634.31;5032223;28;20185;-63
2023/08/02 11:28:49;;;;;;;8.85;8.20;;;;;;;37.07;31.75;98642.28;5032476;28;20280;-62